createdAt,value
2023-04-30T00:00:32.612Z,14.38
2023-04-30T00:02:36.305Z,14.45
2023-04-30T00:04:38.399Z,15.00
2023-04-30T00:06:40.555Z,14.98
2023-04-30T00:08:42.644Z,14.93
2023-04-30T00:10:44.601Z,14.18
2023-04-30T00:12:46.606Z,16.08
2023-04-30T00:14:49.353Z,15.40
2023-04-30T00:16:51.494Z,15.23
2023-04-30T00:18:54.897Z,15.07
2023-04-30T00:20:56.912Z,14.30
2023-04-30T00:22:59.800Z,15.13
2023-04-30T00:25:01.892Z,14.98
2023-04-30T00:27:04.091Z,14.90
2023-04-30T00:29:06.857Z,15.23
2023-04-30T00:31:09.430Z,15.70
2023-04-30T00:33:11.688Z,14.93
2023-04-30T00:35:15.720Z,14.77
2023-04-30T00:37:17.978Z,16.05
2023-04-30T00:39:19.956Z,14.43
2023-04-30T00:41:23.341Z,14.82
2023-04-30T00:43:25.456Z,14.50
2023-04-30T00:45:27.491Z,14.68
2023-04-30T00:47:29.670Z,14.63
2023-04-30T00:49:31.720Z,14.70
2023-04-30T00:51:35.694Z,14.20
2023-04-30T00:53:40.220Z,14.10
2023-04-30T00:55:44.055Z,13.45
2023-04-30T00:57:46.607Z,15.15
2023-04-30T00:59:49.093Z,13.70
2023-04-30T01:01:52.164Z,14.57
2023-04-30T01:03:57.644Z,14.70
2023-04-30T01:05:59.656Z,13.40
2023-04-30T01:08:03.173Z,14.73
2023-04-30T01:10:06.128Z,14.38
2023-04-30T01:12:13.457Z,16.05
2023-04-30T01:14:27.719Z,14.70
2023-04-30T01:16:35.887Z,13.45
2023-04-30T01:18:43.572Z,14.15
2023-04-30T01:20:53.008Z,13.73
2023-04-30T01:22:59.655Z,13.55
2023-04-30T01:25:25.522Z,13.30
2023-04-30T01:29:36.445Z,12.98
2023-04-30T01:31:38.478Z,12.43
2023-04-30T01:33:40.488Z,13.68
2023-04-30T01:35:58.763Z,13.27
2023-04-30T01:38:10.463Z,12.35
2023-04-30T01:40:22.963Z,13.30
2023-04-30T01:42:30.901Z,13.40
2023-04-30T01:44:55.201Z,14.82
2023-04-30T01:47:04.640Z,13.18
2023-04-30T01:49:14.390Z,13.38
2023-04-30T01:51:23.712Z,13.93
2023-04-30T01:53:40.060Z,12.27
2023-04-30T01:55:45.138Z,13.20
2023-04-30T01:57:55.739Z,12.98
2023-04-30T01:59:59.553Z,13.43
2023-04-30T02:02:01.727Z,13.43
2023-04-30T02:04:04.235Z,13.43
2023-04-30T02:06:06.432Z,13.77
2023-04-30T02:08:08.569Z,14.57
2023-04-30T02:10:12.211Z,13.98
2023-04-30T02:12:14.836Z,12.95
2023-04-30T02:14:16.816Z,13.95
2023-04-30T02:16:20.155Z,13.43
2023-04-30T02:18:23.446Z,12.60
2023-04-30T02:20:25.508Z,13.23
2023-04-30T02:22:27.536Z,13.80
2023-04-30T02:24:29.561Z,13.80
2023-04-30T02:26:31.538Z,14.60
2023-04-30T02:28:33.752Z,12.98
2023-04-30T02:30:35.768Z,14.55
2023-04-30T02:32:39.195Z,12.52
2023-04-30T02:34:41.458Z,13.65
2023-04-30T02:36:43.380Z,13.13
2023-04-30T02:38:45.778Z,14.23
2023-04-30T02:40:47.788Z,13.45
2023-04-30T02:42:49.864Z,14.35
2023-04-30T02:44:51.797Z,13.93
2023-04-30T02:46:53.691Z,14.50
2023-04-30T02:48:57.052Z,13.77
2023-04-30T02:50:58.979Z,15.73
2023-04-30T02:53:01.218Z,14.05
2023-04-30T02:55:04.206Z,13.80
2023-04-30T02:57:07.354Z,14.55
2023-04-30T02:59:09.519Z,14.70
2023-04-30T03:01:11.709Z,14.27
2023-04-30T03:03:13.993Z,15.48
2023-04-30T03:05:17.586Z,16.10
2023-04-30T03:07:19.840Z,14.43
2023-04-30T03:09:21.900Z,15.15
2023-04-30T03:11:23.953Z,14.43
2023-04-30T03:13:26.099Z,14.30
2023-04-30T03:15:29.377Z,15.60
2023-04-30T03:17:31.418Z,16.17
2023-04-30T03:19:33.897Z,15.23
2023-04-30T03:21:37.289Z,13.57
2023-04-30T03:23:39.293Z,15.63
2023-04-30T03:25:41.344Z,14.93
2023-04-30T03:27:43.263Z,14.02
2023-04-30T03:29:45.381Z,17.08
2023-04-30T03:31:47.462Z,17.10
2023-04-30T03:33:49.571Z,16.60
2023-04-30T03:35:51.829Z,16.55
2023-04-30T03:37:55.880Z,15.73
2023-04-30T03:39:57.906Z,16.80
2023-04-30T03:42:00.389Z,14.82
2023-04-30T03:44:02.375Z,16.40
2023-04-30T03:46:04.384Z,17.13
2023-04-30T03:48:07.061Z,16.00
2023-04-30T03:50:09.983Z,17.55
2023-04-30T03:52:11.945Z,16.55
2023-04-30T03:54:15.279Z,16.80
2023-04-30T03:56:17.302Z,16.63
2023-04-30T03:58:19.384Z,15.02
2023-04-30T04:00:22.678Z,16.40
2023-04-30T04:02:25.344Z,17.67
2023-04-30T04:04:27.616Z,17.95
2023-04-30T04:06:29.806Z,18.33
2023-04-30T04:08:32.976Z,17.25
2023-04-30T04:10:36.607Z,18.70
2023-04-30T04:12:38.885Z,18.17
2023-04-30T04:14:40.824Z,18.35
2023-04-30T04:16:42.952Z,19.73
2023-04-30T04:18:45.083Z,17.13
2023-04-30T04:20:47.072Z,18.35
2023-04-30T04:22:49.144Z,17.10
2023-04-30T04:24:51.705Z,18.90
2023-04-30T04:26:56.025Z,18.67
2023-04-30T04:28:57.984Z,20.02
2023-04-30T04:31:00.039Z,18.58
2023-04-30T04:33:02.467Z,19.50
2023-04-30T04:35:05.220Z,18.65
2023-04-30T04:37:07.359Z,18.10
2023-04-30T04:39:09.633Z,20.13
2023-04-30T04:41:11.698Z,20.00
2023-04-30T04:43:15.027Z,20.08
2023-04-30T04:45:17.135Z,19.13
2023-04-30T04:47:21.746Z,21.60
2023-04-30T04:49:23.877Z,18.30
2023-04-30T04:51:25.844Z,20.58
2023-04-30T04:53:28.005Z,22.45
2023-04-30T04:55:30.141Z,20.60
2023-04-30T04:57:32.064Z,19.90
2023-04-30T04:59:35.755Z,21.00
2023-04-30T05:01:37.959Z,20.17
2023-04-30T05:03:40.215Z,20.63
2023-04-30T05:05:43.144Z,22.02
2023-04-30T05:07:45.306Z,18.30
2023-04-30T05:09:47.702Z,22.02
2023-04-30T05:11:49.842Z,23.50
2023-04-30T05:13:51.827Z,21.98
2023-04-30T05:15:55.557Z,22.13
2023-04-30T05:17:57.610Z,20.83
2023-04-30T05:19:59.632Z,21.42
2023-04-30T05:22:01.655Z,24.20
2023-04-30T05:24:04.310Z,24.13
2023-04-30T05:26:06.311Z,22.50
2023-04-30T05:28:08.307Z,24.45
2023-04-30T05:30:11.454Z,24.27
2023-04-30T05:32:14.828Z,24.77
2023-04-30T05:34:16.939Z,25.58
2023-04-30T05:36:19.146Z,25.20
2023-04-30T05:38:21.171Z,22.55
2023-04-30T05:40:23.253Z,24.02
2023-04-30T05:42:25.375Z,23.92
2023-04-30T05:44:30.318Z,24.77
2023-04-30T05:48:35.610Z,22.17
2023-04-30T05:50:37.603Z,25.38
2023-04-30T05:52:39.647Z,24.08
2023-04-30T05:54:41.967Z,25.30
2023-04-30T05:56:44.205Z,21.55
2023-04-30T05:58:47.920Z,22.67
2023-04-30T06:00:51.960Z,24.80
2023-04-30T06:02:59.706Z,22.50
2023-04-30T06:05:03.378Z,24.02
2023-04-30T06:07:05.651Z,23.02
2023-04-30T06:09:08.061Z,23.13
2023-04-30T06:11:12.223Z,23.75
2023-04-30T06:13:14.894Z,23.83
2023-04-30T06:15:17.036Z,23.02
2023-04-30T06:17:20.564Z,25.05
2023-04-30T06:19:22.634Z,22.65
2023-04-30T06:21:26.149Z,23.10
2023-04-30T06:23:28.359Z,22.60
2023-04-30T06:25:30.714Z,24.38
2023-04-30T06:27:33.101Z,24.45
2023-04-30T06:29:35.324Z,24.08
2023-04-30T06:31:37.420Z,23.00
2023-04-30T06:33:39.439Z,23.13
2023-04-30T06:35:41.513Z,23.63
2023-04-30T06:37:44.879Z,22.52
2023-04-30T06:39:47.048Z,23.98
2023-04-30T06:41:49.159Z,23.45
2023-04-30T06:43:51.119Z,22.25
2023-04-30T06:45:53.327Z,22.05
2023-04-30T06:47:55.965Z,22.02
2023-04-30T06:49:57.949Z,23.02
2023-04-30T06:52:00.044Z,22.02
2023-04-30T06:54:03.557Z,24.02
2023-04-30T06:56:06.363Z,23.27
2023-04-30T06:58:08.471Z,22.92
2023-04-30T07:00:15.017Z,23.65
2023-04-30T07:02:18.092Z,23.70
2023-04-30T07:04:21.228Z,21.52
2023-04-30T07:08:57.810Z,23.50
2023-04-30T07:11:01.150Z,23.90
2023-04-30T07:13:03.090Z,23.25
2023-04-30T07:15:06.103Z,23.33
2023-04-30T07:17:08.410Z,22.63
2023-04-30T07:19:10.436Z,21.70
2023-04-30T07:21:12.669Z,23.00
2023-04-30T07:23:14.616Z,22.88
2023-04-30T07:25:16.807Z,23.90
2023-04-30T07:27:22.610Z,23.40
2023-04-30T07:29:24.538Z,22.42
2023-04-30T07:31:27.044Z,20.58
2023-04-30T07:33:29.327Z,23.00
2023-04-30T07:35:31.310Z,20.55
2023-04-30T07:37:35.416Z,22.95
2023-04-30T07:39:38.122Z,22.65
2023-04-30T07:41:40.067Z,22.88
2023-04-30T07:43:43.491Z,21.23
2023-04-30T07:45:45.573Z,22.42
2023-04-30T07:47:48.759Z,21.58
2023-04-30T07:49:50.869Z,21.27
2023-04-30T07:51:53.344Z,20.92
2023-04-30T07:53:55.527Z,22.30
2023-04-30T07:55:57.435Z,22.60
2023-04-30T07:57:59.621Z,22.40
2023-04-30T08:00:04.055Z,23.65
2023-04-30T08:02:06.413Z,22.08
2023-04-30T08:04:09.478Z,21.70
2023-04-30T08:06:11.606Z,22.60
2023-04-30T08:08:13.581Z,21.50
2023-04-30T08:10:16.090Z,21.48
2023-04-30T08:12:19.010Z,21.52
2023-04-30T08:14:21.589Z,20.98
2023-04-30T08:16:25.026Z,19.70
2023-04-30T08:18:27.045Z,20.30
2023-04-30T08:20:29.388Z,22.15
2023-04-30T08:22:31.428Z,21.83
2023-04-30T08:24:33.403Z,20.08
2023-04-30T08:26:35.382Z,22.15
2023-04-30T08:28:37.680Z,21.65
2023-04-30T08:30:40.047Z,19.58
2023-04-30T08:32:43.394Z,21.40
2023-04-30T08:34:45.379Z,21.67
2023-04-30T08:36:47.328Z,21.42
2023-04-30T08:38:49.779Z,22.33
2023-04-30T08:41:00.003Z,21.73
2023-04-30T08:43:06.377Z,20.98
2023-04-30T08:45:11.558Z,22.02
2023-04-30T08:47:14.813Z,20.60
2023-04-30T08:49:18.195Z,22.38
2023-04-30T08:51:21.808Z,20.27
2023-04-30T08:53:23.738Z,19.17
2023-04-30T08:55:26.922Z,19.90
2023-04-30T08:57:30.828Z,20.73
2023-04-30T08:59:33.289Z,19.93
2023-04-30T09:01:35.634Z,17.60
2023-04-30T09:03:38.003Z,18.98
2023-04-30T09:05:41.829Z,19.65
2023-04-30T09:07:55.963Z,17.70
2023-04-30T09:10:14.097Z,20.10
2023-04-30T09:12:20.666Z,19.90
2023-04-30T09:14:25.655Z,19.80
2023-04-30T09:18:39.483Z,19.02
2023-04-30T09:20:56.588Z,16.85
2023-04-30T09:23:06.816Z,17.63
2023-04-30T09:25:10.214Z,17.08
2023-04-30T09:27:17.445Z,16.45
2023-04-30T09:29:19.421Z,15.65
2023-04-30T09:31:22.139Z,16.92
2023-04-30T09:33:24.323Z,16.77
2023-04-30T09:35:29.891Z,17.10
2023-04-30T09:37:39.486Z,17.63
2023-04-30T09:39:49.705Z,17.90
2023-04-30T09:41:52.240Z,17.10
2023-04-30T09:43:54.732Z,17.80
2023-04-30T09:45:58.810Z,16.73
2023-04-30T09:48:13.126Z,18.17
2023-04-30T09:50:19.333Z,19.65
2023-04-30T09:52:21.981Z,18.02
2023-04-30T09:54:28.077Z,16.98
2023-04-30T09:56:35.177Z,17.75
2023-04-30T09:58:41.002Z,16.25
2023-04-30T10:00:45.248Z,17.48
2023-04-30T10:02:47.724Z,15.85
2023-04-30T10:04:56.022Z,16.65
2023-04-30T10:06:59.296Z,15.45
2023-04-30T10:09:05.221Z,14.73
2023-04-30T10:11:09.643Z,14.50
2023-04-30T10:13:17.335Z,14.98
2023-04-30T10:15:23.677Z,13.75
2023-04-30T10:17:29.734Z,14.50
2023-04-30T10:19:37.005Z,13.98
2023-04-30T10:21:41.254Z,14.25
2023-04-30T10:23:44.352Z,12.35
2023-04-30T10:25:46.341Z,12.55
2023-04-30T10:27:51.158Z,12.75
2023-04-30T10:29:55.011Z,11.68
2023-04-30T10:31:58.767Z,10.88
2023-04-30T10:34:09.787Z,9.10
2023-04-30T10:36:14.774Z,9.77
2023-04-30T10:40:27.006Z,10.60
2023-04-30T10:42:29.120Z,10.45
2023-04-30T10:44:35.112Z,10.90
2023-04-30T10:46:37.505Z,9.73
2023-04-30T10:48:39.572Z,9.27
2023-04-30T10:50:45.580Z,9.50
2023-04-30T10:53:02.996Z,8.80
2023-04-30T10:55:06.024Z,9.60
2023-04-30T10:57:12.495Z,9.07
2023-04-30T10:59:15.162Z,9.38
2023-04-30T11:01:19.133Z,8.77
2023-04-30T11:03:22.720Z,8.60
2023-04-30T11:05:35.800Z,8.18
2023-04-30T11:07:38.233Z,8.15
2023-04-30T11:09:41.892Z,6.05
2023-04-30T11:11:44.849Z,5.68
2023-04-30T11:14:00.171Z,7.13
2023-04-30T11:18:09.869Z,7.43
2023-04-30T11:20:14.184Z,7.65
2023-04-30T11:22:18.362Z,6.03
2023-04-30T11:24:20.621Z,6.55
2023-04-30T11:26:24.681Z,6.82
2023-04-30T11:28:27.911Z,5.03
2023-04-30T11:30:31.022Z,5.35
2023-04-30T11:32:34.908Z,4.80
2023-04-30T11:34:38.484Z,3.15
2023-04-30T11:36:42.017Z,3.47
2023-04-30T11:38:45.701Z,4.10
2023-04-30T11:40:49.035Z,4.20
2023-04-30T11:42:51.186Z,4.55
2023-04-30T11:44:53.132Z,3.65
2023-04-30T11:46:55.818Z,4.93
2023-04-30T11:48:58.541Z,4.50
2023-04-30T11:51:03.585Z,5.05
2023-04-30T11:53:06.041Z,4.32
2023-04-30T11:55:15.770Z,4.72
2023-04-30T11:57:17.820Z,4.47
2023-04-30T11:59:19.928Z,3.50
2023-04-30T12:01:22.531Z,4.53
2023-04-30T12:03:25.476Z,4.65
2023-04-30T12:05:28.186Z,5.10
2023-04-30T12:07:32.787Z,4.55
2023-04-30T12:09:52.064Z,4.68
2023-04-30T12:11:55.185Z,4.03
2023-04-30T12:14:00.777Z,5.20
2023-04-30T12:16:03.273Z,5.15
2023-04-30T12:18:13.196Z,4.65
2023-04-30T12:20:16.034Z,4.78
2023-04-30T12:22:18.188Z,5.95
2023-04-30T12:24:23.778Z,5.70
2023-04-30T12:26:35.542Z,4.82
2023-04-30T12:28:37.855Z,5.38
2023-04-30T12:30:42.386Z,5.47
2023-04-30T12:32:46.124Z,4.78
2023-04-30T12:34:48.717Z,5.50
2023-04-30T12:36:50.794Z,5.50
2023-04-30T12:39:03.051Z,5.05
2023-04-30T12:41:06.512Z,5.15
2023-04-30T12:43:09.555Z,4.75
2023-04-30T12:45:12.096Z,4.65
2023-04-30T12:47:14.604Z,4.22
2023-04-30T12:49:24.985Z,5.07
2023-04-30T12:51:28.507Z,4.70
2023-04-30T12:53:31.720Z,4.72
2023-04-30T12:55:35.154Z,3.90
2023-04-30T12:57:38.581Z,4.68
2023-04-30T12:59:57.494Z,4.35
2023-04-30T13:02:10.135Z,4.68
2023-04-30T13:04:12.808Z,5.10
2023-04-30T13:06:15.293Z,3.95
2023-04-30T13:08:18.302Z,4.47
2023-04-30T13:10:20.457Z,4.80
2023-04-30T13:12:22.463Z,4.18
2023-04-30T13:14:26.058Z,4.28
2023-04-30T13:16:28.470Z,4.00
2023-04-30T13:18:31.010Z,4.13
2023-04-30T13:20:33.040Z,4.25
2023-04-30T13:22:35.059Z,4.75
2023-04-30T13:24:37.289Z,4.80
2023-04-30T13:26:39.571Z,4.20
2023-04-30T13:28:41.588Z,4.00
2023-04-30T13:30:45.207Z,4.03
2023-04-30T13:32:47.274Z,4.00
2023-04-30T13:34:49.473Z,4.13
2023-04-30T13:36:53.426Z,4.43
2023-04-30T13:38:55.704Z,3.92
2023-04-30T13:40:57.604Z,4.38
2023-04-30T13:42:59.814Z,4.47
2023-04-30T13:45:02.180Z,4.40
2023-04-30T13:47:05.673Z,3.70
2023-04-30T13:49:07.681Z,4.03
2023-04-30T13:51:09.956Z,4.55
2023-04-30T13:53:11.917Z,4.53
2023-04-30T13:55:13.871Z,4.43
2023-04-30T13:57:16.185Z,3.65
2023-04-30T13:59:19.008Z,3.30
2023-04-30T14:01:21.071Z,3.42
2023-04-30T14:03:24.597Z,4.13
2023-04-30T14:05:26.908Z,3.85
2023-04-30T14:07:29.469Z,4.38
2023-04-30T14:09:31.435Z,3.97
2023-04-30T14:11:33.528Z,4.03
2023-04-30T14:13:35.647Z,4.00
2023-04-30T14:15:38.584Z,4.05
2023-04-30T14:17:40.765Z,3.83
2023-04-30T14:19:44.237Z,3.42
2023-04-30T14:21:46.758Z,3.75
2023-04-30T14:23:48.812Z,3.80
2023-04-30T14:25:51.023Z,3.47
2023-04-30T14:27:53.195Z,3.30
2023-04-30T14:29:56.136Z,2.83
2023-04-30T14:31:58.463Z,3.22
2023-04-30T14:34:00.579Z,2.60
2023-04-30T14:36:04.715Z,3.22
2023-04-30T14:38:06.646Z,3.25
2023-04-30T14:40:09.753Z,3.22
2023-04-30T14:42:11.949Z,3.22
2023-04-30T14:44:14.131Z,2.78
2023-04-30T14:46:16.378Z,2.72
2023-04-30T14:48:18.527Z,3.00
2023-04-30T14:50:20.680Z,2.08
2023-04-30T14:52:24.356Z,3.20
2023-04-30T14:54:26.471Z,3.03
2023-04-30T14:56:28.749Z,3.00
2023-04-30T14:58:30.835Z,2.72
2023-04-30T15:00:33.253Z,2.95
2023-04-30T15:02:35.547Z,2.75
2023-04-30T15:04:37.626Z,2.63
2023-04-30T15:06:39.797Z,2.83
2023-04-30T15:08:43.603Z,3.22
2023-04-30T15:10:45.646Z,2.95
2023-04-30T15:12:47.744Z,3.35
2023-04-30T15:14:50.447Z,2.70
2023-04-30T15:16:52.643Z,2.67
2023-04-30T15:18:54.984Z,2.90
2023-04-30T15:20:56.954Z,2.50
2023-04-30T15:22:59.268Z,2.60
2023-04-30T15:25:02.861Z,2.50
2023-04-30T15:27:05.280Z,2.90
2023-04-30T15:29:07.628Z,3.20
2023-04-30T15:31:11.355Z,3.45
2023-04-30T15:33:13.658Z,2.63
2023-04-30T15:35:15.869Z,3.20
2023-04-30T15:37:17.887Z,2.50
2023-04-30T15:39:21.052Z,2.67
2023-04-30T15:41:24.818Z,3.20
2023-04-30T15:43:26.817Z,3.15
2023-04-30T15:45:29.485Z,2.60
2023-04-30T15:47:31.574Z,4.00
2023-04-30T15:49:33.966Z,2.83
2023-04-30T15:51:36.924Z,2.65
2023-04-30T15:53:39.043Z,3.35
2023-04-30T15:55:41.353Z,2.97
2023-04-30T15:57:44.739Z,3.20
2023-04-30T15:59:46.692Z,2.88
2023-04-30T16:01:48.761Z,3.10
2023-04-30T16:03:51.142Z,3.45
2023-04-30T16:05:54.156Z,2.30
2023-04-30T16:07:56.522Z,2.38
2023-04-30T16:09:58.986Z,2.30
2023-04-30T16:12:01.028Z,2.90
2023-04-30T16:14:04.426Z,2.80
2023-04-30T16:16:08.743Z,2.40
2023-04-30T16:18:10.949Z,2.30
2023-04-30T16:20:13.247Z,2.90
2023-04-30T16:22:17.092Z,2.22
2023-04-30T16:24:19.225Z,2.35
2023-04-30T16:26:22.013Z,2.20
2023-04-30T16:28:28.089Z,2.17
2023-04-30T16:30:32.686Z,2.20
2023-04-30T16:32:35.663Z,2.20
2023-04-30T16:34:37.773Z,2.78
2023-04-30T16:36:40.354Z,2.80
2023-04-30T16:38:44.240Z,2.72
2023-04-30T16:40:46.250Z,2.30
2023-04-30T16:42:48.288Z,2.90
2023-04-30T16:44:50.288Z,2.70
2023-04-30T16:46:59.410Z,2.47
2023-04-30T16:49:01.377Z,2.53
2023-04-30T16:51:03.734Z,2.50
2023-04-30T16:53:06.256Z,2.50
2023-04-30T16:55:10.409Z,3.05
2023-04-30T16:57:12.450Z,2.33
2023-04-30T16:59:14.427Z,2.50
2023-04-30T17:01:16.460Z,2.40
2023-04-30T17:03:20.119Z,2.80
2023-04-30T17:05:22.823Z,2.70
2023-04-30T17:07:25.566Z,2.72
2023-04-30T17:09:27.771Z,2.70
2023-04-30T17:11:30.914Z,2.95
2023-04-30T17:13:32.960Z,2.40
2023-04-30T17:15:35.041Z,2.67
2023-04-30T17:17:37.202Z,2.85
2023-04-30T17:19:40.912Z,2.72
2023-04-30T17:21:42.945Z,2.30
2023-04-30T17:23:45.017Z,2.47
2023-04-30T17:25:47.820Z,2.25
2023-04-30T17:27:49.974Z,2.28
2023-04-30T17:29:52.764Z,2.28
2023-04-30T17:31:55.015Z,2.63
2023-04-30T17:33:57.242Z,2.30
2023-04-30T17:36:00.608Z,2.30
2023-04-30T17:38:02.617Z,2.40
2023-04-30T17:40:05.529Z,2.35
2023-04-30T17:42:08.182Z,2.08
2023-04-30T17:44:10.136Z,2.40
2023-04-30T17:46:12.942Z,2.38
2023-04-30T17:48:14.981Z,2.40
2023-04-30T17:50:16.964Z,2.60
2023-04-30T17:52:20.515Z,2.42
2023-04-30T17:54:24.579Z,2.80
2023-04-30T17:56:28.456Z,2.47
2023-04-30T17:58:30.483Z,2.47
2023-04-30T18:00:34.241Z,2.67
2023-04-30T18:02:36.348Z,2.15
2023-04-30T18:04:38.317Z,2.17
2023-04-30T18:06:40.440Z,2.25
2023-04-30T18:08:44.412Z,2.58
2023-04-30T18:10:47.886Z,1.92
2023-04-30T18:12:50.330Z,2.20
2023-04-30T18:14:52.704Z,2.22
2023-04-30T18:16:54.919Z,2.40
2023-04-30T18:18:57.728Z,2.10
2023-04-30T18:21:00.527Z,2.58
2023-04-30T18:23:02.693Z,2.10
2023-04-30T18:25:08.654Z,2.03
2023-04-30T18:27:10.684Z,2.42
2023-04-30T18:29:13.251Z,2.03
2023-04-30T18:31:16.087Z,2.38
2023-04-30T18:33:18.004Z,2.40
2023-04-30T18:35:19.958Z,2.30
2023-04-30T18:37:24.304Z,2.45
2023-04-30T18:39:26.589Z,2.90
2023-04-30T18:41:29.895Z,2.17
2023-04-30T18:43:31.971Z,2.50
2023-04-30T18:45:34.188Z,2.90
2023-04-30T18:47:36.488Z,2.38
2023-04-30T18:49:38.772Z,2.42
2023-04-30T18:51:40.807Z,2.33
2023-04-30T18:53:45.210Z,2.92
2023-04-30T18:55:47.321Z,2.63
2023-04-30T18:57:50.721Z,2.58
2023-04-30T18:59:52.868Z,2.47
2023-04-30T19:01:55.740Z,2.30
2023-04-30T19:03:57.864Z,3.05
2023-04-30T19:05:59.955Z,3.05
2023-04-30T19:08:02.095Z,2.78
2023-04-30T19:10:04.743Z,2.67
2023-04-30T19:12:07.325Z,2.45
2023-04-30T19:14:10.705Z,2.75
2023-04-30T19:16:12.771Z,2.50
2023-04-30T19:18:16.228Z,2.72
2023-04-30T19:20:18.303Z,2.92
2023-04-30T19:22:20.477Z,2.88
2023-04-30T19:24:23.750Z,2.88
2023-04-30T19:26:25.864Z,2.97
2023-04-30T19:28:28.305Z,3.15
2023-04-30T19:30:32.771Z,2.97
2023-04-30T19:32:34.775Z,3.00
2023-04-30T19:34:36.681Z,2.80
2023-04-30T19:36:39.029Z,2.90
2023-04-30T19:38:41.526Z,3.28
2023-04-30T19:40:47.417Z,2.58
2023-04-30T19:42:49.328Z,2.70
2023-04-30T19:44:52.508Z,2.95
2023-04-30T19:46:56.375Z,2.70
2023-04-30T19:48:58.262Z,2.63
2023-04-30T19:51:04.255Z,3.10
2023-04-30T19:53:06.644Z,3.20
2023-04-30T19:55:09.545Z,3.30
2023-04-30T19:57:11.498Z,3.08
2023-04-30T19:59:14.070Z,2.95
2023-04-30T20:01:16.053Z,3.13
2023-04-30T20:03:20.494Z,3.42
2023-04-30T20:05:23.186Z,3.38
2023-04-30T20:07:25.129Z,3.40
2023-04-30T20:09:27.171Z,3.42
2023-04-30T20:11:29.324Z,3.85
2023-04-30T20:13:31.552Z,3.70
2023-04-30T20:15:33.925Z,3.53
2023-04-30T20:17:36.063Z,3.47
2023-04-30T20:19:39.403Z,5.90
2023-04-30T20:21:41.824Z,11.45
2023-04-30T20:23:46.581Z,14.65
2023-04-30T20:25:50.024Z,12.20
2023-04-30T20:27:52.090Z,7.38
2023-04-30T20:29:54.784Z,6.30
2023-04-30T20:31:58.343Z,5.20
2023-04-30T20:34:00.652Z,4.53
2023-04-30T20:36:04.435Z,4.82
2023-04-30T20:38:06.650Z,5.40
2023-04-30T20:40:09.888Z,4.95
2023-04-30T20:42:11.887Z,5.00
2023-04-30T20:44:13.845Z,5.00
2023-04-30T20:46:17.082Z,4.97
2023-04-30T20:48:19.139Z,4.82
2023-04-30T20:50:21.351Z,4.68
2023-04-30T20:52:24.784Z,4.40
2023-04-30T20:54:27.142Z,10.60
2023-04-30T20:56:29.307Z,11.98
2023-04-30T20:58:31.249Z,9.65
2023-04-30T21:00:33.346Z,6.95
2023-04-30T21:02:35.541Z,5.82
2023-04-30T21:04:37.728Z,7.47
2023-04-30T21:06:40.513Z,6.40
2023-04-30T21:08:44.326Z,7.05
2023-04-30T21:10:46.589Z,6.63
2023-04-30T21:12:48.540Z,6.10
2023-04-30T21:14:50.921Z,5.47
2023-04-30T21:16:53.033Z,6.00
2023-04-30T21:18:55.608Z,6.43
2023-04-30T21:21:02.202Z,6.22
2023-04-30T21:23:04.513Z,5.70
2023-04-30T21:25:10.875Z,6.20
2023-04-30T21:27:12.959Z,6.00
2023-04-30T21:29:14.913Z,6.30
2023-04-30T21:31:20.187Z,6.40
2023-04-30T21:33:22.473Z,6.03
2023-04-30T21:35:24.604Z,5.93
2023-04-30T21:37:26.571Z,6.30
2023-04-30T21:39:29.853Z,6.47
2023-04-30T21:41:33.246Z,6.85
2023-04-30T21:43:35.278Z,6.45
2023-04-30T21:45:37.470Z,6.18
2023-04-30T21:47:39.593Z,8.43
2023-04-30T21:49:42.670Z,6.65
2023-04-30T21:51:45.039Z,6.43
2023-04-30T21:53:47.265Z,7.28
2023-04-30T21:55:49.415Z,6.70
2023-04-30T21:57:52.970Z,7.13
2023-04-30T21:59:55.165Z,7.28
2023-04-30T22:01:58.297Z,7.35
2023-04-30T22:04:00.509Z,7.22
2023-04-30T22:06:02.925Z,7.60
2023-04-30T22:08:05.410Z,7.38
2023-04-30T22:10:08.359Z,7.70
2023-04-30T22:12:10.376Z,7.05
2023-04-30T22:14:13.715Z,7.38
2023-04-30T22:16:17.638Z,7.25
2023-04-30T22:18:20.072Z,7.82
2023-04-30T22:20:22.044Z,7.82
2023-04-30T22:22:24.437Z,7.97
2023-04-30T22:24:27.015Z,8.45
2023-04-30T22:26:28.988Z,8.30
2023-04-30T22:28:31.202Z,7.90
2023-04-30T22:30:34.544Z,8.32
2023-04-30T22:32:36.827Z,7.68
2023-04-30T22:34:41.685Z,8.25
2023-04-30T22:36:44.388Z,7.47
2023-04-30T22:38:46.343Z,7.45
2023-04-30T22:40:48.291Z,7.07
2023-04-30T22:42:50.546Z,7.60
2023-04-30T22:44:52.807Z,7.20
2023-04-30T22:46:58.050Z,7.68
2023-04-30T22:49:01.086Z,7.70
2023-04-30T22:51:03.840Z,7.28
2023-04-30T22:53:05.940Z,7.88
2023-04-30T22:55:08.699Z,6.95
2023-04-30T22:57:10.636Z,6.90
2023-04-30T22:59:12.930Z,7.60
2023-04-30T23:01:15.219Z,6.93
2023-04-30T23:03:18.793Z,7.50
2023-04-30T23:05:20.876Z,7.38
2023-04-30T23:07:22.957Z,6.90
2023-04-30T23:09:26.078Z,6.93
2023-04-30T23:11:29.612Z,7.40
2023-04-30T23:13:32.486Z,7.95
2023-04-30T23:15:34.552Z,8.60
2023-04-30T23:17:37.212Z,7.65
2023-04-30T23:19:40.750Z,7.25
2023-04-30T23:21:43.219Z,7.43
2023-04-30T23:23:45.216Z,7.63
2023-04-30T23:25:47.168Z,8.35
2023-04-30T23:27:49.257Z,6.72
2023-04-30T23:29:51.292Z,6.80
2023-04-30T23:31:53.970Z,7.47
2023-04-30T23:33:56.106Z,6.90
2023-04-30T23:35:59.494Z,6.40
2023-04-30T23:38:01.653Z,6.53
2023-04-30T23:40:07.255Z,7.03
2023-04-30T23:42:09.286Z,6.90
2023-04-30T23:44:13.271Z,6.25
2023-04-30T23:46:16.412Z,6.57
2023-04-30T23:48:18.484Z,7.00
2023-04-30T23:50:20.505Z,7.00
2023-04-30T23:52:23.920Z,7.00
2023-04-30T23:54:25.938Z,7.05
2023-04-30T23:56:28.236Z,6.80
2023-04-30T23:58:30.386Z,6.75
